createdAt,value
2022-10-03T00:02:31.427Z,98.33
2022-10-03T00:17:49.315Z,99.52
2022-10-03T00:33:03.360Z,100.00
2022-10-03T00:48:11.810Z,97.64
2022-10-03T01:03:48.887Z,100.00
2022-10-03T01:19:02.814Z,100.00
2022-10-03T01:34:20.934Z,100.00
2022-10-03T01:49:34.127Z,100.00
2022-10-03T02:04:41.601Z,100.00
2022-10-03T02:19:49.027Z,97.00
2022-10-03T02:34:56.972Z,91.62
2022-10-03T02:50:19.322Z,94.13
2022-10-03T03:05:23.910Z,92.95
2022-10-03T03:20:34.190Z,93.15
2022-10-03T03:35:38.454Z,100.00
2022-10-03T03:51:03.573Z,100.00
2022-10-03T04:06:17.474Z,100.00
2022-10-03T04:21:38.096Z,95.96
2022-10-03T04:36:53.811Z,100.00
2022-10-03T04:52:27.660Z,97.48
2022-10-03T05:07:32.879Z,97.18
2022-10-03T05:22:47.206Z,96.45
2022-10-03T05:38:04.282Z,93.07
2022-10-03T05:53:17.771Z,91.03
2022-10-03T06:08:40.543Z,86.69
2022-10-03T06:23:58.849Z,85.77
2022-10-03T06:39:15.310Z,87.37
2022-10-03T06:54:16.815Z,85.27
2022-10-03T07:09:18.246Z,90.39
2022-10-03T07:24:42.531Z,91.27
2022-10-03T07:39:50.088Z,97.51
2022-10-03T07:55:10.391Z,100.00
2022-10-03T08:10:31.489Z,96.24
2022-10-03T08:25:36.062Z,100.00
2022-10-03T08:40:40.572Z,100.00
2022-10-03T08:55:47.906Z,100.00
2022-10-03T09:11:08.126Z,95.41
2022-10-03T09:26:18.732Z,86.03
2022-10-03T09:41:20.159Z,88.51
2022-10-03T09:56:27.750Z,85.73
2022-10-03T10:11:35.479Z,77.43
2022-10-03T10:26:46.544Z,72.49
2022-10-03T10:42:06.830Z,65.44
2022-10-03T10:57:27.151Z,64.98
2022-10-03T11:12:47.257Z,61.04
2022-10-03T11:28:08.056Z,68.26
2022-10-03T11:43:12.564Z,64.16
2022-10-03T11:58:14.041Z,62.86
2022-10-03T12:13:23.176Z,62.44
2022-10-03T12:28:35.240Z,65.21
2022-10-03T12:43:49.958Z,56.06
2022-10-03T12:59:09.803Z,55.58
2022-10-03T13:14:23.478Z,54.90
2022-10-03T13:29:30.076Z,56.03
2022-10-03T13:44:34.887Z,57.51
2022-10-03T13:59:39.394Z,57.78
2022-10-03T14:14:48.679Z,55.66
2022-10-03T14:29:52.949Z,56.63
2022-10-03T14:44:56.528Z,58.05
2022-10-03T14:59:58.477Z,62.29
2022-10-03T15:15:05.874Z,67.90
2022-10-03T15:30:07.943Z,59.51
2022-10-03T15:45:17.439Z,63.50
2022-10-03T16:00:24.710Z,63.58
2022-10-03T16:15:29.607Z,63.94
2022-10-03T16:30:36.329Z,65.49
2022-10-03T16:45:44.030Z,65.91
2022-10-03T17:16:44.188Z,69.08
2022-10-03T17:31:46.020Z,68.49
2022-10-03T17:46:56.555Z,68.10
2022-10-03T18:02:04.692Z,67.49
2022-10-03T18:17:09.193Z,69.14
2022-10-03T18:32:10.619Z,70.12
2022-10-03T18:47:27.158Z,71.12
2022-10-03T19:02:34.918Z,71.88
2022-10-03T19:17:45.572Z,73.66
2022-10-03T19:32:50.200Z,72.48
2022-10-03T19:47:54.353Z,73.31
2022-10-03T20:03:16.571Z,73.93
2022-10-03T20:18:21.155Z,74.13
2022-10-03T20:33:30.592Z,73.77
2022-10-03T20:48:35.335Z,74.25
2022-10-03T21:04:06.251Z,77.50
2022-10-03T21:19:15.670Z,77.35
2022-10-03T21:34:17.087Z,79.40
2022-10-03T21:49:33.878Z,80.00
2022-10-03T22:16:13.377Z,82.63
2022-10-03T22:31:34.620Z,79.86
2022-10-03T22:46:37.472Z,77.85
2022-10-03T23:01:42.554Z,76.58
2022-10-03T23:17:02.604Z,75.92
2022-10-03T23:32:05.616Z,75.29
2022-10-03T23:47:10.384Z,74.30
